createdAt,value
2023-02-03T00:03:33.556Z,10.90
2023-02-03T00:08:36.772Z,10.90
2023-02-03T00:13:40.539Z,11.00
2023-02-03T00:18:42.725Z,10.90
2023-02-03T00:23:45.158Z,11.00
2023-02-03T00:28:48.770Z,10.90
2023-02-03T00:33:55.078Z,11.00
2023-02-03T00:38:58.182Z,11.00
2023-02-03T00:44:01.793Z,11.00
2023-02-03T00:49:04.552Z,11.00
2023-02-03T00:54:06.988Z,11.00
2023-02-03T00:59:10.612Z,11.00
2023-02-03T01:04:12.929Z,11.00
2023-02-03T01:09:15.097Z,11.00
2023-02-03T01:14:18.680Z,11.00
2023-02-03T01:19:20.989Z,11.00
2023-02-03T01:24:23.162Z,11.00
2023-02-03T01:29:26.932Z,11.00
2023-02-03T01:34:29.243Z,11.00
2023-02-03T01:39:31.527Z,11.00
2023-02-03T01:44:43.425Z,11.00
2023-02-03T01:49:52.952Z,11.00
2023-02-03T01:54:58.922Z,11.00
2023-02-03T02:00:05.015Z,11.10
2023-02-03T02:05:14.185Z,11.00
2023-02-03T02:10:17.164Z,11.10
2023-02-03T02:15:25.191Z,11.10
2023-02-03T02:20:48.850Z,11.10
2023-02-03T02:26:17.887Z,11.10
2023-02-03T02:31:58.440Z,11.10
2023-02-03T02:37:07.793Z,11.10
2023-02-03T02:42:18.403Z,11.10
2023-02-03T02:47:23.923Z,11.10
2023-02-03T02:52:28.095Z,11.10
2023-02-03T02:57:31.732Z,11.00
2023-02-03T03:02:37.039Z,11.00
2023-02-03T03:07:45.385Z,11.00
2023-02-03T03:12:52.929Z,11.00
2023-02-03T03:18:01.212Z,11.00
2023-02-03T03:23:07.437Z,11.00
2023-02-03T03:28:15.239Z,11.00
2023-02-03T03:33:19.788Z,11.00
2023-02-03T03:38:26.507Z,11.10
2023-02-03T03:43:32.133Z,11.10
2023-02-03T03:48:41.824Z,11.10
2023-02-03T03:53:47.190Z,11.10
2023-02-03T03:58:52.756Z,11.10
2023-02-03T04:03:59.580Z,11.10
2023-02-03T04:09:01.839Z,11.10
2023-02-03T04:14:04.680Z,11.10
2023-02-03T04:19:08.649Z,11.10
2023-02-03T04:24:11.006Z,11.10
2023-02-03T04:29:13.232Z,11.10
2023-02-03T04:34:16.839Z,11.10
2023-02-03T04:39:19.124Z,11.20
2023-02-03T04:44:21.310Z,11.10
2023-02-03T04:49:25.131Z,11.20
2023-02-03T04:54:27.526Z,11.20
2023-02-03T04:59:29.720Z,11.20
2023-02-03T05:04:33.381Z,11.20
2023-02-03T05:09:35.539Z,11.20
2023-02-03T05:14:37.807Z,11.20
2023-02-03T05:19:41.469Z,11.30
2023-02-03T05:24:43.670Z,11.30
2023-02-03T05:29:46.097Z,11.30
2023-02-03T05:34:49.940Z,11.30
2023-02-03T05:39:52.183Z,11.30
2023-02-03T05:44:54.296Z,11.40
2023-02-03T05:49:57.866Z,11.40
2023-02-03T05:55:00.085Z,11.40
2023-02-03T06:00:02.558Z,11.40
2023-02-03T06:05:07.287Z,11.50
2023-02-03T06:10:10.348Z,11.50
2023-02-03T06:15:12.567Z,11.50
2023-02-03T06:20:18.068Z,11.50
2023-02-03T06:25:20.327Z,11.50
2023-02-03T06:30:22.577Z,11.50
2023-02-03T06:35:26.981Z,11.50
2023-02-03T06:40:30.017Z,11.50
2023-02-03T06:45:32.560Z,11.50
2023-02-03T06:50:36.141Z,11.50
2023-02-03T06:55:38.327Z,11.50
2023-02-03T07:00:40.552Z,11.50
2023-02-03T07:05:44.277Z,11.50
2023-02-03T07:10:46.556Z,11.50
2023-02-03T07:15:48.763Z,11.50
2023-02-03T07:20:52.642Z,11.50
2023-02-03T07:25:58.947Z,11.60
2023-02-03T07:31:04.335Z,11.60
2023-02-03T07:36:10.365Z,11.60
2023-02-03T07:41:12.667Z,11.60
2023-02-03T07:46:14.950Z,11.60
2023-02-03T07:51:18.689Z,11.60
2023-02-03T07:56:20.880Z,11.60
2023-02-03T08:01:23.224Z,11.60
2023-02-03T08:06:26.864Z,11.60
2023-02-03T08:11:29.357Z,11.60
2023-02-03T08:16:31.906Z,11.70
2023-02-03T08:21:35.642Z,11.70
2023-02-03T08:26:37.769Z,11.70
2023-02-03T08:31:42.311Z,11.70
2023-02-03T08:36:46.016Z,11.70
2023-02-03T08:41:48.301Z,11.60
2023-02-03T08:46:50.821Z,11.60
2023-02-03T08:51:55.537Z,11.50
2023-02-03T08:56:58.110Z,11.40
2023-02-03T09:02:00.449Z,11.30
2023-02-03T09:07:04.493Z,11.30
2023-02-03T09:12:07.154Z,11.40
2023-02-03T09:17:10.244Z,11.50
2023-02-03T09:22:13.905Z,11.70
2023-02-03T09:27:19.445Z,11.80
2023-02-03T09:32:21.596Z,11.90
2023-02-03T09:37:25.418Z,12.00
2023-02-03T09:42:56.008Z,12.10
2023-02-03T09:48:04.054Z,12.30
2023-02-03T09:53:20.041Z,12.40
2023-02-03T09:58:22.375Z,12.60
2023-02-03T10:03:33.790Z,12.90
2023-02-03T10:09:01.988Z,13.00
2023-02-03T10:14:18.577Z,13.10
2023-02-03T10:19:23.197Z,13.10
2023-02-03T10:24:36.155Z,13.10
2023-02-03T10:29:41.763Z,13.20
2023-02-03T10:34:47.279Z,13.40
2023-02-03T10:39:52.881Z,13.60
2023-02-03T10:44:58.537Z,14.00
2023-02-03T10:50:04.406Z,14.30
2023-02-03T10:55:28.895Z,14.70
2023-02-03T11:00:35.322Z,15.00
2023-02-03T11:05:37.508Z,15.20
2023-02-03T11:10:41.359Z,15.20
2023-02-03T11:15:53.761Z,15.10
2023-02-03T11:20:56.950Z,15.00
2023-02-03T11:26:09.231Z,15.00
2023-02-03T11:31:22.051Z,15.20
2023-02-03T11:36:27.424Z,15.30
2023-02-03T11:41:38.262Z,15.40
2023-02-03T11:46:41.519Z,15.40
2023-02-03T11:51:52.189Z,15.40
2023-02-03T11:57:17.078Z,15.30
2023-02-03T12:03:01.173Z,15.20
2023-02-03T12:08:13.401Z,15.00
2023-02-03T12:13:32.170Z,14.70
2023-02-03T12:18:47.926Z,14.40
2023-02-03T12:23:59.973Z,14.10
2023-02-03T12:29:09.684Z,14.00
2023-02-03T12:34:20.098Z,13.90
2023-02-03T12:39:28.935Z,13.90
2023-02-03T12:44:48.102Z,13.90
2023-02-03T12:49:55.403Z,13.80
2023-02-03T12:55:01.291Z,13.70
2023-02-03T13:00:20.462Z,13.60
2023-02-03T13:05:28.879Z,13.40
2023-02-03T13:10:40.237Z,13.40
2023-02-03T13:15:47.142Z,13.30
2023-02-03T13:20:50.134Z,13.20
2023-02-03T13:26:20.470Z,13.10
2023-02-03T13:31:36.660Z,13.10
2023-02-03T13:37:17.895Z,13.00
2023-02-03T13:42:25.213Z,13.00
2023-02-03T13:47:33.014Z,13.00
2023-02-03T13:52:38.754Z,12.90
2023-02-03T13:57:41.410Z,12.90
2023-02-03T14:02:53.179Z,12.80
2023-02-03T14:07:55.442Z,12.70
2023-02-03T14:13:00.818Z,12.60
2023-02-03T14:18:35.002Z,12.50
2023-02-03T14:23:59.589Z,12.40
2023-02-03T14:29:02.944Z,12.30
2023-02-03T14:34:11.796Z,12.30
2023-02-03T14:39:43.841Z,12.20
2023-02-03T14:45:01.590Z,12.20
2023-02-03T14:50:21.716Z,12.10
2023-02-03T14:55:42.990Z,12.00
2023-02-03T15:00:45.183Z,11.90
2023-02-03T15:05:50.623Z,11.80
2023-02-03T15:10:52.870Z,11.70
2023-02-03T15:15:57.526Z,11.70
2023-02-03T15:21:01.256Z,11.60
2023-02-03T15:26:12.868Z,11.50
2023-02-03T15:31:20.413Z,11.50
2023-02-03T15:36:30.423Z,11.40
2023-02-03T15:41:35.561Z,11.40
2023-02-03T15:46:43.554Z,11.40
2023-02-03T15:51:50.563Z,11.30
2023-02-03T15:56:58.847Z,11.30
2023-02-03T16:02:06.524Z,11.20
2023-02-03T16:07:21.051Z,11.20
2023-02-03T16:12:25.204Z,11.10
2023-02-03T16:17:30.893Z,11.00
2023-02-03T16:22:41.709Z,10.90
2023-02-03T16:27:47.503Z,10.90
2023-02-03T16:33:12.373Z,10.80
2023-02-03T16:38:19.833Z,10.70
2023-02-03T16:43:22.453Z,10.70
2023-02-03T16:48:27.190Z,10.70
2023-02-03T16:53:35.048Z,10.70
2023-02-03T16:58:38.397Z,10.60
2023-02-03T17:03:43.877Z,10.60
2023-02-03T17:08:47.965Z,10.60
2023-02-03T17:13:50.917Z,10.60
2023-02-03T17:18:53.584Z,10.60
2023-02-03T17:23:58.964Z,10.60
2023-02-03T17:29:01.130Z,10.60
2023-02-03T17:34:03.351Z,10.60
2023-02-03T17:55:08.635Z,10.60
2023-02-03T18:00:11.904Z,10.60
2023-02-03T18:05:14.048Z,10.60
2023-02-03T18:10:18.975Z,10.60
2023-02-03T18:15:21.191Z,10.50
2023-02-03T18:20:23.340Z,10.50
2023-02-03T18:25:27.189Z,10.60
2023-02-03T18:30:29.677Z,10.50
2023-02-03T18:35:33.641Z,10.50
2023-02-03T18:40:38.965Z,10.50
2023-02-03T18:45:41.147Z,10.60
2023-02-03T18:50:43.842Z,10.50
2023-02-03T18:55:47.536Z,10.50
2023-02-03T19:00:49.696Z,10.50
2023-02-03T19:05:51.794Z,10.40
2023-02-03T19:10:55.512Z,10.40
2023-02-03T19:15:57.700Z,10.40
2023-02-03T19:20:59.837Z,10.40
2023-02-03T19:26:03.532Z,10.30
2023-02-03T19:31:08.649Z,10.40
2023-02-03T19:36:11.615Z,10.30
2023-02-03T19:41:15.437Z,10.30
2023-02-03T19:46:20.442Z,10.40
2023-02-03T19:51:22.676Z,10.40
2023-02-03T19:56:26.301Z,10.40
2023-02-03T20:01:28.457Z,10.40
2023-02-03T20:06:31.073Z,10.40
2023-02-03T20:11:34.616Z,10.30
2023-02-03T20:16:36.846Z,10.40
2023-02-03T20:21:39.012Z,10.40
2023-02-03T20:26:42.685Z,10.30
2023-02-03T20:31:44.949Z,10.30
2023-02-03T20:36:47.217Z,10.30
2023-02-03T20:41:50.939Z,10.40
2023-02-03T20:46:53.370Z,10.40
2023-02-03T20:51:55.664Z,10.40
2023-02-03T20:56:59.271Z,10.40
2023-02-03T21:02:01.417Z,10.40
2023-02-03T21:07:12.734Z,10.40
2023-02-03T21:12:16.527Z,10.40
2023-02-03T21:17:23.462Z,10.30
2023-02-03T21:22:28.049Z,10.30
2023-02-03T21:27:33.044Z,10.30
2023-02-03T21:32:38.308Z,10.30
2023-02-03T21:37:41.657Z,10.30
2023-02-03T21:42:46.425Z,10.30
2023-02-03T21:47:52.894Z,10.30
2023-02-03T21:52:55.337Z,10.30
2023-02-03T21:57:59.116Z,10.30
2023-02-03T22:03:01.950Z,10.30
2023-02-03T22:08:13.645Z,10.30
2023-02-03T22:13:17.353Z,10.30
2023-02-03T22:18:19.555Z,10.30
2023-02-03T22:23:21.850Z,10.30
2023-02-03T22:28:25.550Z,10.30
2023-02-03T22:33:27.750Z,10.30
2023-02-03T22:38:30.637Z,10.30
2023-02-03T22:43:34.281Z,10.30
2023-02-03T22:48:36.525Z,10.30
2023-02-03T22:53:38.737Z,10.30
2023-02-03T22:58:42.432Z,10.30
2023-02-03T23:03:44.744Z,10.30
2023-02-03T23:08:46.989Z,10.30
2023-02-03T23:13:50.654Z,10.30
2023-02-03T23:18:52.824Z,10.30
2023-02-03T23:23:54.961Z,10.40
2023-02-03T23:28:58.605Z,10.30
2023-02-03T23:34:00.868Z,10.30
2023-02-03T23:39:03.142Z,10.20
2023-02-03T23:44:07.009Z,10.20
2023-02-03T23:49:09.841Z,10.10
2023-02-03T23:54:12.120Z,10.10
2023-02-03T23:59:15.726Z,10.00
